sensor_id;sensor_type;location;lat;lon;timestamp;P1;durP1;ratioP1;P2;durP2;ratioP2
52740;SDS011;38634;52.138;9.912;2022-07-10T00:02:01;15.73;;;3.45;;
52740;SDS011;38634;52.138;9.912;2022-07-10T00:04:45;11.35;;;2.83;;
52740;SDS011;38634;52.138;9.912;2022-07-10T00:07:30;14.35;;;2.75;;
52740;SDS011;38634;52.138;9.912;2022-07-10T00:10:14;10.43;;;3.25;;
52740;SDS011;38634;52.138;9.912;2022-07-10T00:13:01;13.57;;;2.67;;
52740;SDS011;38634;52.138;9.912;2022-07-10T00:15:46;13.52;;;2.45;;
52740;SDS011;38634;52.138;9.912;2022-07-10T00:18:30;18.40;;;3.33;;
52740;SDS011;38634;52.138;9.912;2022-07-10T00:21:15;28.70;;;5.70;;
52740;SDS011;38634;52.138;9.912;2022-07-10T00:24:00;13.75;;;2.53;;
52740;SDS011;38634;52.138;9.912;2022-07-10T00:26:44;20.92;;;3.75;;
52740;SDS011;38634;52.138;9.912;2022-07-10T00:29:31;9.85;;;3.10;;
52740;SDS011;38634;52.138;9.912;2022-07-10T00:32:15;20.13;;;3.33;;
52740;SDS011;38634;52.138;9.912;2022-07-10T00:35:00;15.70;;;3.40;;
52740;SDS011;38634;52.138;9.912;2022-07-10T00:37:45;17.75;;;3.20;;
52740;SDS011;38634;52.138;9.912;2022-07-10T00:40:30;18.33;;;3.08;;
52740;SDS011;38634;52.138;9.912;2022-07-10T00:43:15;15.52;;;2.70;;
52740;SDS011;38634;52.138;9.912;2022-07-10T00:45:59;12.35;;;2.75;;
52740;SDS011;38634;52.138;9.912;2022-07-10T00:48:44;16.88;;;2.95;;
52740;SDS011;38634;52.138;9.912;2022-07-10T00:51:29;22.67;;;4.18;;
52740;SDS011;38634;52.138;9.912;2022-07-10T00:54:14;9.38;;;1.90;;
52740;SDS011;38634;52.138;9.912;2022-07-10T00:56:58;18.15;;;3.45;;
52740;SDS011;38634;52.138;9.912;2022-07-10T00:59:44;16.15;;;3.20;;
52740;SDS011;38634;52.138;9.912;2022-07-10T01:02:29;15.77;;;3.08;;
52740;SDS011;38634;52.138;9.912;2022-07-10T01:05:14;17.73;;;2.97;;
52740;SDS011;38634;52.138;9.912;2022-07-10T01:07:58;17.80;;;3.00;;
52740;SDS011;38634;52.138;9.912;2022-07-10T01:10:43;20.40;;;3.60;;
52740;SDS011;38634;52.138;9.912;2022-07-10T01:13:29;15.88;;;2.88;;
52740;SDS011;38634;52.138;9.912;2022-07-10T01:16:13;20.60;;;4.40;;
52740;SDS011;38634;52.138;9.912;2022-07-10T01:18:58;20.70;;;3.38;;
52740;SDS011;38634;52.138;9.912;2022-07-10T01:21:42;18.65;;;3.78;;
52740;SDS011;38634;52.138;9.912;2022-07-10T01:24:27;11.98;;;2.50;;
52740;SDS011;38634;52.138;9.912;2022-07-10T11:06:57;23.23;;;3.10;;
52740;SDS011;38634;52.138;9.912;2022-07-10T11:09:42;17.73;;;3.38;;
52740;SDS011;38634;52.138;9.912;2022-07-10T11:12:27;20.88;;;3.95;;
52740;SDS011;38634;52.138;9.912;2022-07-10T11:15:13;20.98;;;3.55;;
52740;SDS011;38634;52.138;9.912;2022-07-10T11:17:59;15.45;;;2.63;;
52740;SDS011;38634;52.138;9.912;2022-07-10T11:20:55;15.60;;;3.13;;
52740;SDS011;38634;52.138;9.912;2022-07-10T11:27:14;16.95;;;2.92;;
52740;SDS011;38634;52.138;9.912;2022-07-10T11:30:08;14.07;;;2.67;;
52740;SDS011;38634;52.138;9.912;2022-07-10T11:32:54;12.65;;;2.42;;
52740;SDS011;38634;52.138;9.912;2022-07-10T11:35:39;13.75;;;3.00;;
52740;SDS011;38634;52.138;9.912;2022-07-10T11:38:24;12.18;;;2.97;;
52740;SDS011;38634;52.138;9.912;2022-07-10T11:41:19;16.80;;;3.83;;
52740;SDS011;38634;52.138;9.912;2022-07-10T11:44:12;9.82;;;2.13;;
52740;SDS011;38634;52.138;9.912;2022-07-10T11:47:01;10.65;;;2.22;;
52740;SDS011;38634;52.138;9.912;2022-07-10T11:49:46;10.57;;;2.05;;
52740;SDS011;38634;52.138;9.912;2022-07-10T11:52:35;12.18;;;2.53;;
52740;SDS011;38634;52.138;9.912;2022-07-10T11:55:21;16.05;;;2.72;;
52740;SDS011;38634;52.138;9.912;2022-07-10T11:58:16;17.08;;;2.83;;
52740;SDS011;38634;52.138;9.912;2022-07-10T12:01:02;12.90;;;2.67;;
52740;SDS011;38634;52.138;9.912;2022-07-10T12:03:54;15.77;;;2.92;;
52740;SDS011;38634;52.138;9.912;2022-07-10T12:06:43;14.35;;;2.50;;
52740;SDS011;38634;52.138;9.912;2022-07-10T12:09:30;15.57;;;2.80;;
52740;SDS011;38634;52.138;9.912;2022-07-10T12:12:14;57.50;;;13.10;;
52740;SDS011;38634;52.138;9.912;2022-07-10T12:14:59;51.53;;;8.80;;
52740;SDS011;38634;52.138;9.912;2022-07-10T12:17:49;49.55;;;7.63;;
52740;SDS011;38634;52.138;9.912;2022-07-10T12:20:35;23.67;;;4.50;;
52740;SDS011;38634;52.138;9.912;2022-07-10T12:23:20;33.88;;;6.35;;
52740;SDS011;38634;52.138;9.912;2022-07-10T12:26:10;58.65;;;8.98;;
52740;SDS011;38634;52.138;9.912;2022-07-10T12:28:56;34.33;;;6.80;;
52740;SDS011;38634;52.138;9.912;2022-07-10T12:31:42;27.55;;;5.25;;
52740;SDS011;38634;52.138;9.912;2022-07-10T12:34:34;46.90;;;7.43;;
52740;SDS011;38634;52.138;9.912;2022-07-10T12:37:27;25.73;;;4.57;;
52740;SDS011;38634;52.138;9.912;2022-07-10T12:40:12;13.50;;;2.80;;
52740;SDS011;38634;52.138;9.912;2022-07-10T12:43:23;16.30;;;2.70;;
52740;SDS011;38634;52.138;9.912;2022-07-10T12:46:16;18.90;;;3.05;;
52740;SDS011;38634;52.138;9.912;2022-07-10T12:49:05;16.55;;;2.85;;
52740;SDS011;38634;52.138;9.912;2022-07-10T12:51:52;21.23;;;3.40;;
52740;SDS011;38634;52.138;9.912;2022-07-10T12:54:36;15.65;;;3.08;;
52740;SDS011;38634;52.138;9.912;2022-07-10T12:57:21;13.43;;;2.85;;
52740;SDS011;38634;52.138;9.912;2022-07-10T13:00:06;20.27;;;3.13;;
52740;SDS011;38634;52.138;9.912;2022-07-10T13:02:57;15.23;;;2.60;;
52740;SDS011;38634;52.138;9.912;2022-07-10T13:05:50;17.40;;;3.00;;
52740;SDS011;38634;52.138;9.912;2022-07-10T13:08:44;63.58;;;9.70;;
52740;SDS011;38634;52.138;9.912;2022-07-10T13:11:30;40.67;;;7.50;;
52740;SDS011;38634;52.138;9.912;2022-07-10T13:14:14;34.10;;;5.75;;
52740;SDS011;38634;52.138;9.912;2022-07-10T13:16:59;55.13;;;7.55;;
52740;SDS011;38634;52.138;9.912;2022-07-10T13:19:44;63.13;;;9.38;;
52740;SDS011;38634;52.138;9.912;2022-07-10T13:22:29;46.95;;;7.35;;
52740;SDS011;38634;52.138;9.912;2022-07-10T13:25:13;26.13;;;5.28;;
52740;SDS011;38634;52.138;9.912;2022-07-10T13:27:58;29.40;;;5.30;;
52740;SDS011;38634;52.138;9.912;2022-07-10T13:30:46;70.25;;;10.00;;
52740;SDS011;38634;52.138;9.912;2022-07-10T13:33:34;42.55;;;6.80;;
52740;SDS011;38634;52.138;9.912;2022-07-10T13:36:19;24.67;;;4.95;;
52740;SDS011;38634;52.138;9.912;2022-07-10T13:39:04;22.70;;;4.25;;
52740;SDS011;38634;52.138;9.912;2022-07-10T13:41:49;62.00;;;8.88;;
52740;SDS011;38634;52.138;9.912;2022-07-10T13:44:35;63.92;;;8.95;;
52740;SDS011;38634;52.138;9.912;2022-07-10T13:47:20;29.17;;;5.05;;
52740;SDS011;38634;52.138;9.912;2022-07-10T13:50:05;29.42;;;5.18;;
52740;SDS011;38634;52.138;9.912;2022-07-10T13:52:50;52.47;;;8.18;;
52740;SDS011;38634;52.138;9.912;2022-07-10T13:55:36;57.72;;;9.02;;
52740;SDS011;38634;52.138;9.912;2022-07-10T13:58:21;36.17;;;6.72;;
52740;SDS011;38634;52.138;9.912;2022-07-10T14:01:06;26.10;;;5.35;;
52740;SDS011;38634;52.138;9.912;2022-07-10T14:03:51;35.83;;;6.47;;
52740;SDS011;38634;52.138;9.912;2022-07-10T14:06:36;70.78;;;10.90;;
52740;SDS011;38634;52.138;9.912;2022-07-10T14:09:21;62.20;;;9.32;;
52740;SDS011;38634;52.138;9.912;2022-07-10T14:12:10;34.35;;;6.75;;
52740;SDS011;38634;52.138;9.912;2022-07-10T14:14:54;38.55;;;7.22;;
52740;SDS011;38634;52.138;9.912;2022-07-10T14:17:41;60.78;;;9.73;;
52740;SDS011;38634;52.138;9.912;2022-07-10T14:20:26;55.85;;;8.57;;
52740;SDS011;38634;52.138;9.912;2022-07-10T14:23:12;21.33;;;4.20;;
52740;SDS011;38634;52.138;9.912;2022-07-10T14:25:58;28.48;;;5.20;;
52740;SDS011;38634;52.138;9.912;2022-07-10T14:28:42;55.30;;;8.60;;
52740;SDS011;38634;52.138;9.912;2022-07-10T14:31:27;46.72;;;8.95;;
52740;SDS011;38634;52.138;9.912;2022-07-10T14:34:12;24.58;;;4.97;;
52740;SDS011;38634;52.138;9.912;2022-07-10T14:36:57;34.20;;;6.20;;
52740;SDS011;38634;52.138;9.912;2022-07-10T14:39:42;56.75;;;8.60;;
52740;SDS011;38634;52.138;9.912;2022-07-10T14:42:27;49.40;;;7.82;;
52740;SDS011;38634;52.138;9.912;2022-07-10T14:45:11;33.65;;;5.63;;
52740;SDS011;38634;52.138;9.912;2022-07-10T14:47:56;12.02;;;2.58;;
52740;SDS011;38634;52.138;9.912;2022-07-10T14:50:44;43.10;;;7.32;;
52740;SDS011;38634;52.138;9.912;2022-07-10T14:53:28;71.22;;;10.82;;
52740;SDS011;38634;52.138;9.912;2022-07-10T14:56:18;37.28;;;6.10;;
52740;SDS011;38634;52.138;9.912;2022-07-10T14:59:26;38.58;;;6.93;;
52740;SDS011;38634;52.138;9.912;2022-07-10T15:02:12;22.00;;;4.45;;
52740;SDS011;38634;52.138;9.912;2022-07-10T15:05:02;68.25;;;9.93;;
52740;SDS011;38634;52.138;9.912;2022-07-10T15:07:48;55.90;;;8.02;;
52740;SDS011;38634;52.138;9.912;2022-07-10T15:10:33;30.05;;;5.88;;
52740;SDS011;38634;52.138;9.912;2022-07-10T15:13:18;23.00;;;4.43;;
52740;SDS011;38634;52.138;9.912;2022-07-10T15:16:06;60.25;;;9.40;;
52740;SDS011;38634;52.138;9.912;2022-07-10T15:18:52;44.35;;;6.80;;
52740;SDS011;38634;52.138;9.912;2022-07-10T15:21:40;27.73;;;5.32;;
52740;SDS011;38634;52.138;9.912;2022-07-10T15:24:31;54.40;;;8.27;;
52740;SDS011;38634;52.138;9.912;2022-07-10T15:27:15;64.70;;;9.25;;
52740;SDS011;38634;52.138;9.912;2022-07-10T15:30:00;35.75;;;5.97;;
52740;SDS011;38634;52.138;9.912;2022-07-10T15:32:48;32.13;;;5.88;;
52740;SDS011;38634;52.138;9.912;2022-07-10T15:35:40;50.47;;;7.63;;
52740;SDS011;38634;52.138;9.912;2022-07-10T15:38:26;34.83;;;5.85;;
52740;SDS011;38634;52.138;9.912;2022-07-10T15:41:14;21.38;;;3.95;;
52740;SDS011;38634;52.138;9.912;2022-07-10T15:43:59;18.05;;;3.00;;
52740;SDS011;38634;52.138;9.912;2022-07-10T15:46:44;17.10;;;3.30;;
52740;SDS011;38634;52.138;9.912;2022-07-10T15:49:28;16.83;;;3.00;;
52740;SDS011;38634;52.138;9.912;2022-07-10T15:52:13;15.63;;;2.83;;
52740;SDS011;38634;52.138;9.912;2022-07-10T15:54:58;17.75;;;3.05;;
52740;SDS011;38634;52.138;9.912;2022-07-10T15:57:42;17.15;;;2.88;;
52740;SDS011;38634;52.138;9.912;2022-07-10T16:00:27;18.38;;;3.08;;
52740;SDS011;38634;52.138;9.912;2022-07-10T16:03:12;48.03;;;7.10;;
52740;SDS011;38634;52.138;9.912;2022-07-10T16:05:57;64.15;;;9.93;;
52740;SDS011;38634;52.138;9.912;2022-07-10T16:08:41;49.33;;;8.00;;
52740;SDS011;38634;52.138;9.912;2022-07-10T16:11:26;34.78;;;6.45;;
52740;SDS011;38634;52.138;9.912;2022-07-10T16:14:11;41.08;;;6.32;;
52740;SDS011;38634;52.138;9.912;2022-07-10T16:16:56;78.78;;;11.38;;
52740;SDS011;38634;52.138;9.912;2022-07-10T16:19:41;75.15;;;10.60;;
52740;SDS011;38634;52.138;9.912;2022-07-10T16:22:26;38.38;;;6.43;;
52740;SDS011;38634;52.138;9.912;2022-07-10T16:25:10;31.75;;;5.47;;
52740;SDS011;38634;52.138;9.912;2022-07-10T16:28:14;36.15;;;5.90;;
52740;SDS011;38634;52.138;9.912;2022-07-10T16:30:59;24.48;;;4.53;;
52740;SDS011;38634;52.138;9.912;2022-07-10T16:33:44;42.88;;;6.38;;
52740;SDS011;38634;52.138;9.912;2022-07-10T16:36:31;53.80;;;7.82;;
52740;SDS011;38634;52.138;9.912;2022-07-10T16:39:16;35.17;;;5.95;;
52740;SDS011;38634;52.138;9.912;2022-07-10T16:42:01;31.35;;;6.00;;
52740;SDS011;38634;52.138;9.912;2022-07-10T16:44:45;44.67;;;7.35;;
52740;SDS011;38634;52.138;9.912;2022-07-10T16:47:30;64.50;;;9.45;;
52740;SDS011;38634;52.138;9.912;2022-07-10T16:50:14;63.55;;;9.63;;
52740;SDS011;38634;52.138;9.912;2022-07-10T16:53:00;27.80;;;5.43;;
52740;SDS011;38634;52.138;9.912;2022-07-10T16:55:45;32.40;;;5.95;;
52740;SDS011;38634;52.138;9.912;2022-07-10T16:58:30;59.78;;;9.13;;
52740;SDS011;38634;52.138;9.912;2022-07-10T17:01:16;66.57;;;10.98;;
52740;SDS011;38634;52.138;9.912;2022-07-10T17:04:01;39.20;;;7.35;;
52740;SDS011;38634;52.138;9.912;2022-07-10T17:06:46;35.58;;;6.85;;
52740;SDS011;38634;52.138;9.912;2022-07-10T17:09:31;38.40;;;6.63;;
52740;SDS011;38634;52.138;9.912;2022-07-10T17:12:16;65.80;;;10.35;;
52740;SDS011;38634;52.138;9.912;2022-07-10T17:15:01;58.38;;;9.13;;
52740;SDS011;38634;52.138;9.912;2022-07-10T17:17:47;27.35;;;5.28;;
52740;SDS011;38634;52.138;9.912;2022-07-10T17:20:32;32.33;;;6.25;;
52740;SDS011;38634;52.138;9.912;2022-07-10T17:23:16;55.42;;;9.50;;
52740;SDS011;38634;52.138;9.912;2022-07-10T17:26:01;48.60;;;8.85;;
52740;SDS011;38634;52.138;9.912;2022-07-10T17:28:49;24.30;;;4.38;;
52740;SDS011;38634;52.138;9.912;2022-07-10T17:31:33;19.40;;;4.30;;
52740;SDS011;38634;52.138;9.912;2022-07-10T17:34:18;18.08;;;2.92;;
52740;SDS011;38634;52.138;9.912;2022-07-10T17:37:03;12.48;;;2.65;;
52740;SDS011;38634;52.138;9.912;2022-07-10T17:39:47;13.95;;;3.00;;
52740;SDS011;38634;52.138;9.912;2022-07-10T17:42:32;16.83;;;3.00;;
52740;SDS011;38634;52.138;9.912;2022-07-10T17:45:17;13.32;;;2.47;;
52740;SDS011;38634;52.138;9.912;2022-07-10T17:48:03;18.50;;;3.15;;
52740;SDS011;38634;52.138;9.912;2022-07-10T17:50:48;23.90;;;4.38;;
52740;SDS011;38634;52.138;9.912;2022-07-10T17:53:32;16.35;;;2.75;;
52740;SDS011;38634;52.138;9.912;2022-07-10T17:56:17;18.63;;;3.05;;
52740;SDS011;38634;52.138;9.912;2022-07-10T17:59:03;17.45;;;3.22;;
52740;SDS011;38634;52.138;9.912;2022-07-10T18:01:47;16.92;;;3.00;;
52740;SDS011;38634;52.138;9.912;2022-07-10T18:04:32;20.08;;;3.63;;
52740;SDS011;38634;52.138;9.912;2022-07-10T18:07:17;19.55;;;3.58;;
52740;SDS011;38634;52.138;9.912;2022-07-10T18:10:02;17.05;;;2.72;;
52740;SDS011;38634;52.138;9.912;2022-07-10T18:12:48;15.05;;;3.28;;
52740;SDS011;38634;52.138;9.912;2022-07-10T18:15:32;11.95;;;2.67;;
52740;SDS011;38634;52.138;9.912;2022-07-10T18:18:18;12.73;;;2.53;;
52740;SDS011;38634;52.138;9.912;2022-07-10T18:21:03;23.15;;;4.68;;
52740;SDS011;38634;52.138;9.912;2022-07-10T18:23:48;16.35;;;3.17;;
52740;SDS011;38634;52.138;9.912;2022-07-10T18:26:33;12.63;;;2.67;;
52740;SDS011;38634;52.138;9.912;2022-07-10T18:29:18;18.20;;;3.40;;
52740;SDS011;38634;52.138;9.912;2022-07-10T18:32:05;19.60;;;3.17;;
52740;SDS011;38634;52.138;9.912;2022-07-10T18:34:50;17.95;;;3.20;;
52740;SDS011;38634;52.138;9.912;2022-07-10T18:37:34;15.82;;;3.08;;
52740;SDS011;38634;52.138;9.912;2022-07-10T18:40:20;15.90;;;3.10;;
52740;SDS011;38634;52.138;9.912;2022-07-10T18:43:05;20.85;;;3.40;;
52740;SDS011;38634;52.138;9.912;2022-07-10T18:45:50;15.50;;;2.80;;
52740;SDS011;38634;52.138;9.912;2022-07-10T18:48:34;21.88;;;3.72;;
52740;SDS011;38634;52.138;9.912;2022-07-10T18:51:19;42.30;;;7.50;;
52740;SDS011;38634;52.138;9.912;2022-07-10T18:54:03;16.70;;;3.03;;
52740;SDS011;38634;52.138;9.912;2022-07-10T18:56:48;13.30;;;2.30;;
52740;SDS011;38634;52.138;9.912;2022-07-10T18:59:33;23.13;;;3.85;;
52740;SDS011;38634;52.138;9.912;2022-07-10T19:02:17;21.08;;;3.25;;
52740;SDS011;38634;52.138;9.912;2022-07-10T19:05:02;21.38;;;3.25;;
52740;SDS011;38634;52.138;9.912;2022-07-10T19:07:47;19.15;;;3.90;;
52740;SDS011;38634;52.138;9.912;2022-07-10T19:10:34;23.45;;;3.75;;
52740;SDS011;38634;52.138;9.912;2022-07-10T19:13:19;16.30;;;2.58;;
52740;SDS011;38634;52.138;9.912;2022-07-10T19:16:05;19.20;;;2.95;;
52740;SDS011;38634;52.138;9.912;2022-07-10T19:18:50;20.45;;;3.45;;
52740;SDS011;38634;52.138;9.912;2022-07-10T19:21:34;29.83;;;4.47;;
52740;SDS011;38634;52.138;9.912;2022-07-10T19:24:19;22.60;;;3.85;;
52740;SDS011;38634;52.138;9.912;2022-07-10T19:27:06;22.75;;;3.30;;
52740;SDS011;38634;52.138;9.912;2022-07-10T19:29:50;21.42;;;3.15;;
52740;SDS011;38634;52.138;9.912;2022-07-10T19:32:36;24.67;;;3.75;;
52740;SDS011;38634;52.138;9.912;2022-07-10T19:35:20;16.77;;;2.65;;
52740;SDS011;38634;52.138;9.912;2022-07-10T19:38:05;25.23;;;4.22;;
52740;SDS011;38634;52.138;9.912;2022-07-10T19:40:49;21.63;;;3.17;;
52740;SDS011;38634;52.138;9.912;2022-07-10T19:43:35;23.77;;;3.85;;
52740;SDS011;38634;52.138;9.912;2022-07-10T19:46:20;19.73;;;3.63;;
52740;SDS011;38634;52.138;9.912;2022-07-10T19:49:04;26.80;;;4.38;;
52740;SDS011;38634;52.138;9.912;2022-07-10T19:51:50;21.70;;;3.67;;
52740;SDS011;38634;52.138;9.912;2022-07-10T19:54:35;19.38;;;3.65;;
52740;SDS011;38634;52.138;9.912;2022-07-10T19:57:20;16.52;;;2.90;;
52740;SDS011;38634;52.138;9.912;2022-07-10T20:00:05;15.00;;;2.88;;
52740;SDS011;38634;52.138;9.912;2022-07-10T20:02:50;14.32;;;2.65;;
52740;SDS011;38634;52.138;9.912;2022-07-10T20:05:38;15.82;;;2.95;;
52740;SDS011;38634;52.138;9.912;2022-07-10T20:08:23;11.60;;;2.25;;
52740;SDS011;38634;52.138;9.912;2022-07-10T20:11:08;26.30;;;4.65;;
52740;SDS011;38634;52.138;9.912;2022-07-10T20:13:52;14.98;;;2.88;;
52740;SDS011;38634;52.138;9.912;2022-07-10T20:16:37;22.73;;;3.80;;
52740;SDS011;38634;52.138;9.912;2022-07-10T20:19:21;16.50;;;2.83;;
52740;SDS011;38634;52.138;9.912;2022-07-10T20:22:08;15.30;;;2.88;;
52740;SDS011;38634;52.138;9.912;2022-07-10T20:24:52;16.70;;;2.85;;
52740;SDS011;38634;52.138;9.912;2022-07-10T20:27:37;16.10;;;2.75;;
52740;SDS011;38634;52.138;9.912;2022-07-10T20:30:23;18.40;;;2.92;;
52740;SDS011;38634;52.138;9.912;2022-07-10T20:33:07;20.95;;;3.45;;
52740;SDS011;38634;52.138;9.912;2022-07-10T20:35:53;17.02;;;2.78;;
52740;SDS011;38634;52.138;9.912;2022-07-10T20:39:16;24.10;;;3.75;;
52740;SDS011;38634;52.138;9.912;2022-07-10T20:42:01;23.05;;;3.50;;
52740;SDS011;38634;52.138;9.912;2022-07-10T20:44:48;24.98;;;3.75;;
52740;SDS011;38634;52.138;9.912;2022-07-10T20:47:33;24.27;;;3.78;;
52740;SDS011;38634;52.138;9.912;2022-07-10T20:50:17;20.30;;;3.03;;
52740;SDS011;38634;52.138;9.912;2022-07-10T20:53:02;19.90;;;3.22;;
52740;SDS011;38634;52.138;9.912;2022-07-10T20:55:46;22.20;;;3.22;;
52740;SDS011;38634;52.138;9.912;2022-07-10T20:58:31;21.75;;;3.20;;
52740;SDS011;38634;52.138;9.912;2022-07-10T21:01:16;29.52;;;5.10;;
52740;SDS011;38634;52.138;9.912;2022-07-10T21:04:00;18.73;;;2.85;;
52740;SDS011;38634;52.138;9.912;2022-07-10T21:06:45;17.42;;;3.47;;
52740;SDS011;38634;52.138;9.912;2022-07-10T21:09:29;18.38;;;3.00;;
52740;SDS011;38634;52.138;9.912;2022-07-10T21:12:14;17.42;;;2.88;;
52740;SDS011;38634;52.138;9.912;2022-07-10T21:14:59;21.00;;;3.53;;
52740;SDS011;38634;52.138;9.912;2022-07-10T21:17:44;20.65;;;3.17;;
52740;SDS011;38634;52.138;9.912;2022-07-10T21:20:29;19.23;;;3.00;;
52740;SDS011;38634;52.138;9.912;2022-07-10T21:23:13;19.35;;;3.53;;
52740;SDS011;38634;52.138;9.912;2022-07-10T21:25:58;18.95;;;3.22;;
52740;SDS011;38634;52.138;9.912;2022-07-10T21:28:43;18.35;;;3.03;;
52740;SDS011;38634;52.138;9.912;2022-07-10T21:31:27;25.80;;;6.07;;
52740;SDS011;38634;52.138;9.912;2022-07-10T21:34:12;14.30;;;2.58;;
52740;SDS011;38634;52.138;9.912;2022-07-10T21:36:57;12.13;;;2.28;;
52740;SDS011;38634;52.138;9.912;2022-07-10T21:39:41;15.10;;;2.65;;
52740;SDS011;38634;52.138;9.912;2022-07-10T21:42:26;14.27;;;2.63;;
52740;SDS011;38634;52.138;9.912;2022-07-10T21:45:11;16.25;;;3.00;;
52740;SDS011;38634;52.138;9.912;2022-07-10T21:47:55;15.38;;;2.72;;
52740;SDS011;38634;52.138;9.912;2022-07-10T21:50:40;19.08;;;3.03;;
52740;SDS011;38634;52.138;9.912;2022-07-10T21:53:25;17.15;;;3.25;;
52740;SDS011;38634;52.138;9.912;2022-07-10T21:56:10;18.10;;;3.17;;
52740;SDS011;38634;52.138;9.912;2022-07-10T21:58:54;15.35;;;2.70;;
52740;SDS011;38634;52.138;9.912;2022-07-10T22:01:39;22.15;;;3.47;;
52740;SDS011;38634;52.138;9.912;2022-07-10T22:04:23;18.33;;;3.03;;
52740;SDS011;38634;52.138;9.912;2022-07-10T22:07:08;21.20;;;3.50;;
52740;SDS011;38634;52.138;9.912;2022-07-10T22:09:53;18.05;;;2.97;;
52740;SDS011;38634;52.138;9.912;2022-07-10T22:12:38;17.15;;;2.92;;
52740;SDS011;38634;52.138;9.912;2022-07-10T22:15:23;17.48;;;3.17;;
52740;SDS011;38634;52.138;9.912;2022-07-10T22:18:08;18.50;;;3.15;;
52740;SDS011;38634;52.138;9.912;2022-07-10T22:20:52;16.45;;;3.05;;
52740;SDS011;38634;52.138;9.912;2022-07-10T22:23:37;18.60;;;3.28;;
52740;SDS011;38634;52.138;9.912;2022-07-10T22:26:22;17.20;;;2.88;;
52740;SDS011;38634;52.138;9.912;2022-07-10T22:29:06;10.93;;;2.10;;
52740;SDS011;38634;52.138;9.912;2022-07-10T22:31:51;18.05;;;3.08;;
52740;SDS011;38634;52.138;9.912;2022-07-10T22:34:36;22.17;;;3.63;;
52740;SDS011;38634;52.138;9.912;2022-07-10T22:37:20;16.83;;;2.92;;
52740;SDS011;38634;52.138;9.912;2022-07-10T22:40:05;13.00;;;2.67;;
52740;SDS011;38634;52.138;9.912;2022-07-10T22:42:51;9.43;;;2.35;;
52740;SDS011;38634;52.138;9.912;2022-07-10T22:45:35;13.20;;;2.78;;
52740;SDS011;38634;52.138;9.912;2022-07-10T22:48:20;11.82;;;2.60;;
52740;SDS011;38634;52.138;9.912;2022-07-10T22:51:06;18.30;;;4.05;;
52740;SDS011;38634;52.138;9.912;2022-07-10T22:53:50;9.05;;;2.35;;
52740;SDS011;38634;52.138;9.912;2022-07-10T22:56:35;9.65;;;2.50;;
52740;SDS011;38634;52.138;9.912;2022-07-10T22:59:19;9.98;;;2.30;;
52740;SDS011;38634;52.138;9.912;2022-07-10T23:02:04;9.93;;;2.45;;
52740;SDS011;38634;52.138;9.912;2022-07-10T23:04:48;10.43;;;2.85;;
52740;SDS011;38634;52.138;9.912;2022-07-10T23:07:36;11.00;;;2.70;;
52740;SDS011;38634;52.138;9.912;2022-07-10T23:10:21;19.10;;;3.55;;
52740;SDS011;38634;52.138;9.912;2022-07-10T23:13:07;10.00;;;2.67;;
52740;SDS011;38634;52.138;9.912;2022-07-10T23:15:52;9.82;;;2.72;;
52740;SDS011;38634;52.138;9.912;2022-07-10T23:18:38;10.25;;;2.60;;
52740;SDS011;38634;52.138;9.912;2022-07-10T23:21:22;23.55;;;5.22;;
52740;SDS011;38634;52.138;9.912;2022-07-10T23:24:07;10.45;;;2.78;;
52740;SDS011;38634;52.138;9.912;2022-07-10T23:26:52;9.35;;;2.47;;
52740;SDS011;38634;52.138;9.912;2022-07-10T23:29:36;9.55;;;2.65;;
52740;SDS011;38634;52.138;9.912;2022-07-10T23:32:25;12.90;;;2.83;;
52740;SDS011;38634;52.138;9.912;2022-07-10T23:35:09;11.45;;;2.40;;
52740;SDS011;38634;52.138;9.912;2022-07-10T23:37:55;12.60;;;2.72;;
52740;SDS011;38634;52.138;9.912;2022-07-10T23:40:40;13.77;;;2.88;;
52740;SDS011;38634;52.138;9.912;2022-07-10T23:43:24;14.18;;;2.85;;
52740;SDS011;38634;52.138;9.912;2022-07-10T23:46:09;17.60;;;3.00;;
52740;SDS011;38634;52.138;9.912;2022-07-10T23:48:53;15.73;;;2.65;;
52740;SDS011;38634;52.138;9.912;2022-07-10T23:51:57;19.45;;;3.58;;
52740;SDS011;38634;52.138;9.912;2022-07-10T23:54:43;17.17;;;3.05;;
52740;SDS011;38634;52.138;9.912;2022-07-10T23:57:30;17.92;;;3.13;;
